Time;durP1;ratioP1;P1;durP2;ratioP2;P2;SDS_P1;SDS_P2;PMS_P1;PMS_P2;Temp;Humidity;BMP_temperature;BMP_pressure;BME280_temperature;BME280_humidity;BME280_pressure;Samples;Min_cycle;Max_cycle;Signal;HPM_P1;HPM_P2
2023/01/27 00:02:13;;;;;;;1.70;1.05;;;;;;;;;;5052913;28;20136;-66
2023/01/27 00:04:41;;;;;;;2.00;0.68;;;;;;;;;;5061644;28;20052;-66
2023/01/27 00:07:11;;;;;;;0.90;0.40;;;;;;;;;;5045860;28;20053;-71
2023/01/27 00:09:40;;;;;;;0.70;0.70;;;;;;;;;;5055348;28;20053;-67
2023/01/27 00:14:59;;;;;;;0.45;0.40;;;;;;;;;;5052382;28;20420;-70
2023/01/27 00:17:27;;;;;;;0.73;0.73;;;;;;;;;;5050687;28;20048;-66
2023/01/27 00:19:55;;;;;;;0.60;0.50;;;;;;;;;;5056302;28;20135;-76
2023/01/27 00:25:11;;;;;;;0.30;0.30;;;;;;;;;;5042391;28;20492;-66
2023/01/27 00:27:39;;;;;;;0.35;0.35;;;;;;;;;;5052667;28;20072;-69
2023/01/27 00:30:09;;;;;;;0.50;0.50;;;;;;;;;;5056726;28;20048;-66
2023/01/27 00:35:24;;;;;;;2.42;0.82;;;;;;;;;;5057122;28;20513;-72
2023/01/27 00:37:54;;;;;;;0.20;0.20;;;;;;;;;;5057392;28;20041;-66
2023/01/27 00:40:22;;;;;;;0.68;0.68;;;;;;;;;;5058232;28;20087;-66
2023/01/27 00:42:50;;;;;;;0.43;0.43;;;;;;;;;;5052947;28;20055;-67
2023/01/27 00:48:05;;;;;;;0.20;0.20;;;;;;;;;;5056470;28;20071;-66
2023/01/27 00:50:33;;;;;;;1.20;1.15;;;;;;;;;;5058084;28;20045;-67
2023/01/27 00:53:03;;;;;;;0.50;0.50;;;;;;;;;;5054893;28;20051;-66
2023/01/27 00:55:31;;;;;;;0.30;0.30;;;;;;;;;;5051983;28;20052;-66
2023/01/27 00:57:59;;;;;;;0.55;0.35;;;;;;;;;;5057982;28;20051;-69
2023/01/27 01:00:28;;;;;;;0.65;0.63;;;;;;;;;;5052282;28;20496;-69
2023/01/27 01:02:56;;;;;;;0.40;0.35;;;;;;;;;;5056884;28;20079;-70
2023/01/27 01:05:24;;;;;;;0.40;0.40;;;;;;;;;;5039170;28;20049;-66
2023/01/27 01:07:52;;;;;;;1.45;1.35;;;;;;;;;;5050685;28;20045;-67
2023/01/27 01:10:22;;;;;;;0.38;0.38;;;;;;;;;;5052307;28;20390;-66
2023/01/27 01:12:51;;;;;;;0.50;0.35;;;;;;;;;;5053017;28;20045;-66
2023/01/27 01:15:19;;;;;;;0.50;0.50;;;;;;;;;;5048192;28;20060;-70
2023/01/27 01:17:47;;;;;;;0.55;0.45;;;;;;;;;;5051946;28;20424;-66
2023/01/27 01:20:15;;;;;;;0.75;0.63;;;;;;;;;;5059652;28;20412;-67
2023/01/27 01:22:44;;;;;;;0.32;0.32;;;;;;;;;;5059210;28;20059;-66
2023/01/27 01:25:12;;;;;;;0.40;0.40;;;;;;;;;;5053212;28;20454;-67
2023/01/27 01:27:44;;;;;;;0.40;0.38;;;;;;;;;;5051578;28;20049;-67
2023/01/27 01:30:13;;;;;;;1.17;0.45;;;;;;;;;;5050927;28;20063;-67
2023/01/27 01:32:42;;;;;;;0.20;0.20;;;;;;;;;;5056915;28;20040;-67
2023/01/27 01:35:10;;;;;;;0.50;0.50;;;;;;;;;;5042690;28;20068;-67
2023/01/27 01:37:38;;;;;;;3.47;0.40;;;;;;;;;;5057736;28;20393;-68
2023/01/27 01:40:08;;;;;;;0.40;0.40;;;;;;;;;;5053192;28;20480;-67
2023/01/27 01:42:51;;;;;;;0.85;0.28;;;;;;;;;;5056819;28;20127;-71
2023/01/27 01:45:46;;;;;;;0.60;0.60;;;;;;;;;;5043539;28;20168;-67
2023/01/27 01:48:14;;;;;;;;;;;;;;;;;;5008413;28;20487;-66
2023/01/27 01:50:45;;;;;;;0.30;0.30;;;;;;;;;;5052135;28;20288;-67
2023/01/27 01:53:13;;;;;;;2.95;0.77;;;;;;;;;;5048664;28;20052;-67
2023/01/27 01:55:41;;;;;;;1.67;1.58;;;;;;;;;;5051884;28;20055;-66
2023/01/27 01:58:12;;;;;;;0.40;0.40;;;;;;;;;;5043065;28;20045;-66
2023/01/27 02:00:40;;;;;;;0.45;0.45;;;;;;;;;;5019434;28;20049;-69
2023/01/27 02:03:08;;;;;;;0.30;0.30;;;;;;;;;;5043255;28;20052;-66
2023/01/27 02:05:39;;;;;;;1.15;1.05;;;;;;;;;;5028539;28;20049;-67
2023/01/27 02:08:10;;;;;;;1.95;1.17;;;;;;;;;;5026580;28;20121;-67
2023/01/27 02:10:38;;;;;;;1.33;0.90;;;;;;;;;;5030731;28;20537;-68
2023/01/27 02:13:06;;;;;;;0.55;0.55;;;;;;;;;;5033111;28;20056;-71
2023/01/27 02:15:36;;;;;;;0.40;0.40;;;;;;;;;;5037490;28;20049;-66
2023/01/27 02:18:05;;;;;;;0.30;0.30;;;;;;;;;;5037741;28;20512;-67
2023/01/27 02:20:37;;;;;;;0.40;0.40;;;;;;;;;;5036080;28;20052;-66
2023/01/27 02:23:08;;;;;;;1.05;0.95;;;;;;;;;;5030490;28;20041;-67
2023/01/27 02:25:43;;;;;;;1.67;0.35;;;;;;;;;;5030998;28;20045;-68
2023/01/27 02:28:11;;;;;;;0.30;0.30;;;;;;;;;;5023170;28;20060;-67
2023/01/27 02:30:39;;;;;;;0.30;0.30;;;;;;;;;;5030562;28;20045;-67
2023/01/27 02:33:11;;;;;;;0.30;0.30;;;;;;;;;;5034486;28;20044;-70
2023/01/27 02:35:42;;;;;;;1.27;0.60;;;;;;;;;;5032296;28;20066;-67
2023/01/27 02:38:11;;;;;;;0.80;0.80;;;;;;;;;;5029716;28;20054;-66
2023/01/27 02:40:41;;;;;;;0.30;0.30;;;;;;;;;;5040805;28;20056;-66
2023/01/27 02:43:10;;;;;;;0.40;0.40;;;;;;;;;;5032369;28;20049;-71
2023/01/27 02:45:38;;;;;;;0.43;0.43;;;;;;;;;;5039817;28;20052;-66
2023/01/27 02:48:06;;;;;;;0.20;0.20;;;;;;;;;;5031928;28;20046;-66
2023/01/27 02:50:35;;;;;;;1.13;1.05;;;;;;;;;;5034892;28;20489;-64
2023/01/27 02:53:03;;;;;;;0.20;0.20;;;;;;;;;;5031423;28;20045;-66
2023/01/27 02:55:31;;;;;;;0.90;0.73;;;;;;;;;;5035115;28;20041;-73
2023/01/27 02:58:01;;;;;;;0.30;0.30;;;;;;;;;;5036741;28;20410;-69
2023/01/27 03:00:29;;;;;;;0.55;0.55;;;;;;;;;;5031919;28;20060;-69
2023/01/27 03:02:57;;;;;;;0.20;0.20;;;;;;;;;;5037046;28;20058;-68
2023/01/27 03:05:26;;;;;;;0.35;0.35;;;;;;;;;;5041401;28;20057;-66
2023/01/27 03:07:54;;;;;;;0.30;0.30;;;;;;;;;;5036079;28;20056;-76
2023/01/27 03:10:23;;;;;;;0.57;0.57;;;;;;;;;;5052379;28;20064;-67
2023/01/27 03:12:51;;;;;;;0.40;0.40;;;;;;;;;;5051395;28;20607;-68
2023/01/27 03:18:11;;;;;;;0.20;0.20;;;;;;;;;;5054682;28;20060;-68
2023/01/27 03:20:39;;;;;;;0.35;0.35;;;;;;;;;;5052137;28;20383;-68
2023/01/27 03:23:08;;;;;;;0.57;0.57;;;;;;;;;;5054637;28;20135;-74
2023/01/27 03:25:36;;;;;;;0.50;0.50;;;;;;;;;;5051477;28;20055;-71
2023/01/27 03:28:05;;;;;;;11.80;0.75;;;;;;;;;;5058191;28;20052;-66
2023/01/27 03:30:34;;;;;;;0.40;0.35;;;;;;;;;;5050181;28;20053;-69
2023/01/27 03:33:04;;;;;;;0.63;0.40;;;;;;;;;;5055165;28;20417;-67
2023/01/27 03:35:37;;;;;;;0.85;0.30;;;;;;;;;;5053285;28;20489;-67
2023/01/27 03:46:26;;;;;;;0.30;0.30;;;;;;;;;;5050396;28;20037;-66
2023/01/27 03:48:55;;;;;;;0.30;0.30;;;;;;;;;;5050373;28;20053;-67
2023/01/27 03:51:25;;;;;;;1.45;0.75;;;;;;;;;;5051730;28;20140;-66
2023/01/27 03:53:53;;;;;;;0.20;0.20;;;;;;;;;;5048162;28;20049;-67
2023/01/27 03:56:22;;;;;;;0.50;0.50;;;;;;;;;;5051937;28;20056;-68
2023/01/27 03:58:51;;;;;;;0.73;0.73;;;;;;;;;;5053684;28;20049;-66
2023/01/27 04:01:20;;;;;;;0.95;0.95;;;;;;;;;;5046644;28;20053;-68
2023/01/27 04:06:53;;;;;;;0.80;0.80;;;;;;;;;;5049990;28;20041;-66
2023/01/27 04:09:21;;;;;;;;;;;;;;;;;;5030696;28;20049;-66
2023/01/27 04:11:54;;;;;;;1.35;0.50;;;;;;;;;;5028794;28;19921;-68
2023/01/27 04:14:23;;;;;;;3.38;1.75;;;;;;;;;;5025359;28;20069;-66
2023/01/27 04:16:52;;;;;;;0.38;0.38;;;;;;;;;;5024869;28;20057;-66
2023/01/27 04:19:22;;;;;;;0.38;0.38;;;;;;;;;;5030605;28;20049;-75
2023/01/27 04:21:50;;;;;;;0.45;0.45;;;;;;;;;;5037664;28;20045;-66
2023/01/27 04:24:25;;;;;;;0.40;0.40;;;;;;;;;;5034448;28;20486;-67
2023/01/27 04:26:54;;;;;;;;;;;;;;;;;;5026206;28;20049;-66
2023/01/27 04:29:22;;;;;;;0.28;0.28;;;;;;;;;;5045707;28;19924;-72
2023/01/27 04:31:51;;;;;;;1.92;0.82;;;;;;;;;;5062125;28;20048;-66
2023/01/27 04:34:19;;;;;;;0.40;0.40;;;;;;;;;;5042004;28;20052;-67
2023/01/27 04:36:49;;;;;;;1.40;0.68;;;;;;;;;;5056942;28;20053;-68
2023/01/27 04:39:18;;;;;;;0.30;0.30;;;;;;;;;;5049080;28;20053;-66
2023/01/27 04:41:47;;;;;;;0.57;0.57;;;;;;;;;;5052489;28;20045;-67
2023/01/27 04:44:19;;;;;;;0.98;0.98;;;;;;;;;;5054348;28;20056;-66
2023/01/27 04:46:47;;;;;;;0.50;0.50;;;;;;;;;;5048529;28;20412;-68
2023/01/27 04:49:15;;;;;;;1.27;1.17;;;;;;;;;;5059131;28;20411;-66
2023/01/27 04:51:43;;;;;;;1.02;0.47;;;;;;;;;;5043357;28;20067;-73
2023/01/27 04:54:15;;;;;;;0.50;0.50;;;;;;;;;;5055466;28;20057;-66
2023/01/27 04:56:54;;;;;;;0.50;0.50;;;;;;;;;;5055319;28;20041;-70
2023/01/27 04:59:22;;;;;;;1.42;0.63;;;;;;;;;;5054830;28;20068;-66
2023/01/27 05:01:50;;;;;;;0.30;0.30;;;;;;;;;;5043654;28;20073;-66
2023/01/27 05:04:19;;;;;;;0.25;0.25;;;;;;;;;;5062735;28;20056;-67
2023/01/27 05:06:47;;;;;;;0.57;0.50;;;;;;;;;;5048527;28;20052;-71
2023/01/27 05:09:17;;;;;;;0.15;0.15;;;;;;;;;;5040922;28;20048;-67
2023/01/27 05:11:45;;;;;;;0.40;0.40;;;;;;;;;;5037266;28;20079;-69
2023/01/27 05:14:14;;;;;;;1.58;0.57;;;;;;;;;;5032787;28;20049;-69
2023/01/27 05:16:42;;;;;;;0.57;0.43;;;;;;;;;;5035202;28;20052;-66
2023/01/27 05:19:10;;;;;;;0.88;0.82;;;;;;;;;;5031789;28;20409;-68
2023/01/27 05:21:39;;;;;;;0.63;0.63;;;;;;;;;;5040012;28;20137;-67
2023/01/27 05:24:07;;;;;;;0.32;0.32;;;;;;;;;;5027003;28;20065;-71
2023/01/27 05:26:37;;;;;;;1.08;0.93;;;;;;;;;;5028992;28;20048;-66
2023/01/27 05:29:05;;;;;;;0.22;0.22;;;;;;;;;;5029454;28;20038;-66
2023/01/27 05:31:33;;;;;;;0.60;0.60;;;;;;;;;;5031497;28;20132;-69
2023/01/27 05:34:02;;;;;;;0.40;0.40;;;;;;;;;;5030433;28;20053;-66
2023/01/27 05:36:31;;;;;;;1.35;1.33;;;;;;;;;;5032295;28;20057;-66
2023/01/27 05:38:59;;;;;;;0.68;0.68;;;;;;;;;;5026129;28;20498;-67
2023/01/27 05:41:29;;;;;;;6.10;0.70;;;;;;;;;;5028640;28;20057;-66
2023/01/27 05:43:59;;;;;;;0.90;0.85;;;;;;;;;;5027668;28;20053;-67
2023/01/27 05:46:29;;;;;;;0.88;0.70;;;;;;;;;;5029245;28;20053;-67
2023/01/27 05:48:58;;;;;;;1.90;0.70;;;;;;;;;;5029413;28;20060;-66
2023/01/27 05:51:27;;;;;;;3.33;1.17;;;;;;;;;;5026419;28;20485;-67
2023/01/27 05:53:55;;;;;;;0.80;0.77;;;;;;;;;;5029375;28;20053;-67
2023/01/27 05:56:25;;;;;;;0.68;0.68;;;;;;;;;;5030561;28;20133;-68
2023/01/27 05:58:54;;;;;;;1.27;1.20;;;;;;;;;;5029203;28;20056;-71
2023/01/27 06:01:24;;;;;;;0.82;0.82;;;;;;;;;;5025125;28;20510;-66
2023/01/27 06:03:53;;;;;;;0.30;0.30;;;;;;;;;;5029032;28;20091;-66
2023/01/27 06:06:22;;;;;;;5.07;0.40;;;;;;;;;;5036546;28;20107;-67
2023/01/27 06:08:51;;;;;;;9.77;1.42;;;;;;;;;;5028548;28;20061;-69
2023/01/27 06:11:20;;;;;;;0.57;0.57;;;;;;;;;;5022502;28;20486;-67
2023/01/27 06:13:48;;;;;;;0.65;0.40;;;;;;;;;;5033902;28;20072;-68
2023/01/27 06:16:18;;;;;;;3.97;0.88;;;;;;;;;;5025428;28;20057;-70
2023/01/27 06:18:49;;;;;;;0.65;0.65;;;;;;;;;;5025721;28;20049;-67
2023/01/27 06:21:19;;;;;;;0.30;0.30;;;;;;;;;;5024121;28;20053;-69
2023/01/27 06:23:47;;;;;;;2.38;1.85;;;;;;;;;;5024835;28;20049;-75
2023/01/27 06:26:17;;;;;;;0.88;0.88;;;;;;;;;;5026927;28;20057;-68
2023/01/27 06:28:45;;;;;;;0.65;0.32;;;;;;;;;;5026040;28;20060;-68
2023/01/27 06:31:15;;;;;;;1.77;0.93;;;;;;;;;;5027861;28;20055;-71
2023/01/27 06:33:43;;;;;;;0.45;0.45;;;;;;;;;;5025441;28;20123;-70
2023/01/27 06:36:14;;;;;;;4.43;0.63;;;;;;;;;;5023872;28;20076;-72
2023/01/27 06:38:42;;;;;;;2.75;0.93;;;;;;;;;;5019587;28;20589;-70
2023/01/27 06:41:10;;;;;;;0.52;0.52;;;;;;;;;;5026866;28;20068;-68
2023/01/27 06:43:39;;;;;;;0.63;0.63;;;;;;;;;;5027207;28;20081;-68
2023/01/27 06:46:07;;;;;;;0.73;0.73;;;;;;;;;;5022437;28;20049;-72
2023/01/27 06:48:36;;;;;;;0.28;0.28;;;;;;;;;;5024941;28;20045;-68
2023/01/27 06:51:05;;;;;;;1.67;1.08;;;;;;;;;;5025875;28;20498;-71
2023/01/27 06:53:36;;;;;;;0.35;0.30;;;;;;;;;;5021713;28;20136;-69
2023/01/27 06:56:04;;;;;;;1.05;1.02;;;;;;;;;;5018499;28;20057;-68
2023/01/27 06:58:33;;;;;;;6.20;1.58;;;;;;;;;;5026166;28;20042;-68
2023/01/27 07:01:01;;;;;;;0.50;0.50;;;;;;;;;;5028351;28;20041;-67
2023/01/27 07:03:29;;;;;;;2.20;2.10;;;;;;;;;;5030118;28;20374;-71
2023/01/27 07:05:58;;;;;;;0.35;0.35;;;;;;;;;;5028803;28;20061;-71
2023/01/27 07:08:26;;;;;;;0.35;0.35;;;;;;;;;;5029287;28;20624;-71
2023/01/27 07:10:56;;;;;;;2.30;1.33;;;;;;;;;;5024929;28;20059;-72
2023/01/27 07:13:24;;;;;;;0.70;0.70;;;;;;;;;;5027735;28;20435;-69
2023/01/27 07:15:54;;;;;;;0.55;0.55;;;;;;;;;;5027203;28;20057;-67
2023/01/27 07:18:23;;;;;;;0.45;0.45;;;;;;;;;;5027575;28;20037;-69
2023/01/27 07:20:51;;;;;;;1.10;1.00;;;;;;;;;;5033164;28;20102;-70
2023/01/27 07:23:20;;;;;;;2.78;0.75;;;;;;;;;;5022519;28;20053;-70
2023/01/27 07:25:48;;;;;;;0.52;0.52;;;;;;;;;;5026609;28;20075;-69
2023/01/27 07:28:18;;;;;;;2.22;0.85;;;;;;;;;;5028782;28;20045;-69
2023/01/27 07:30:46;;;;;;;1.20;0.50;;;;;;;;;;5027744;28;20045;-71
2023/01/27 07:33:15;;;;;;;0.80;0.80;;;;;;;;;;5028851;28;20409;-71
2023/01/27 07:35:43;;;;;;;0.45;0.45;;;;;;;;;;5028914;28;20140;-70
2023/01/27 07:38:11;;;;;;;0.70;0.65;;;;;;;;;;5026824;28;20136;-68
2023/01/27 07:40:40;;;;;;;2.15;0.77;;;;;;;;;;5033527;28;20049;-67
2023/01/27 07:43:08;;;;;;;1.80;0.77;;;;;;;;;;5030364;28;20053;-69
2023/01/27 07:45:39;;;;;;;0.50;0.50;;;;;;;;;;5032012;28;20045;-67
2023/01/27 07:48:08;;;;;;;0.60;0.57;;;;;;;;;;5029725;28;20394;-67
2023/01/27 07:50:36;;;;;;;0.47;0.47;;;;;;;;;;5029840;28;20064;-67
2023/01/27 07:53:05;;;;;;;0.63;0.63;;;;;;;;;;5031234;28;20502;-67
2023/01/27 07:55:34;;;;;;;0.50;0.50;;;;;;;;;;5026852;28;20038;-67
2023/01/27 07:58:02;;;;;;;0.20;0.20;;;;;;;;;;5037499;28;20049;-67
2023/01/27 08:00:30;;;;;;;0.90;0.85;;;;;;;;;;5047997;28;20084;-68
2023/01/27 08:03:01;;;;;;;0.80;0.30;;;;;;;;;;5048265;28;20072;-72
2023/01/27 08:05:30;;;;;;;0.52;0.52;;;;;;;;;;5054115;28;20508;-72
2023/01/27 08:08:02;;;;;;;0.80;0.70;;;;;;;;;;5045879;28;20041;-67
2023/01/27 08:10:30;;;;;;;0.52;0.40;;;;;;;;;;5038610;28;20128;-68
2023/01/27 08:12:59;;;;;;;0.40;0.40;;;;;;;;;;5032665;28;20118;-67
2023/01/27 08:15:27;;;;;;;0.63;0.63;;;;;;;;;;5029697;28;20053;-70
2023/01/27 08:17:56;;;;;;;1.60;1.20;;;;;;;;;;5030230;28;20056;-71
2023/01/27 08:20:26;;;;;;;7.80;1.10;;;;;;;;;;5033612;28;20049;-67
2023/01/27 08:22:55;;;;;;;0.82;0.77;;;;;;;;;;5033400;28;20103;-66
2023/01/27 08:25:23;;;;;;;0.63;0.47;;;;;;;;;;5035965;28;20052;-67
2023/01/27 08:27:52;;;;;;;0.60;0.60;;;;;;;;;;5027321;28;20053;-73
2023/01/27 08:30:20;;;;;;;0.20;0.20;;;;;;;;;;5026926;28;20119;-67
2023/01/27 08:32:49;;;;;;;0.88;0.88;;;;;;;;;;5028948;28;20057;-70
2023/01/27 08:35:18;;;;;;;0.40;0.40;;;;;;;;;;5027078;28;20058;-68
2023/01/27 08:37:48;;;;;;;0.68;0.68;;;;;;;;;;5025624;28;20050;-77
2023/01/27 08:40:17;;;;;;;3.92;0.77;;;;;;;;;;5031762;28;20042;-67
2023/01/27 08:42:45;;;;;;;0.47;0.38;;;;;;;;;;5030322;28;20041;-68
2023/01/27 08:45:13;;;;;;;0.68;0.68;;;;;;;;;;5030468;28;20109;-70
2023/01/27 08:47:42;;;;;;;0.73;0.73;;;;;;;;;;5027173;28;20493;-67
2023/01/27 08:50:11;;;;;;;3.72;1.38;;;;;;;;;;5031826;28;20723;-68
2023/01/27 08:52:40;;;;;;;0.65;0.65;;;;;;;;;;5022791;28;20053;-68
2023/01/27 08:55:09;;;;;;;2.28;0.52;;;;;;;;;;5031753;28;20057;-73
2023/01/27 08:57:38;;;;;;;0.68;0.68;;;;;;;;;;5025817;28;20849;-72
2023/01/27 09:00:07;;;;;;;0.35;0.35;;;;;;;;;;5028891;28;20494;-67
2023/01/27 09:02:36;;;;;;;1.70;1.13;;;;;;;;;;5029697;28;20455;-67
2023/01/27 09:05:05;;;;;;;0.20;0.20;;;;;;;;;;5032897;28;20139;-67
2023/01/27 09:07:34;;;;;;;1.38;1.20;;;;;;;;;;5031002;28;20056;-68
2023/01/27 09:10:02;;;;;;;1.60;1.50;;;;;;;;;;5026000;28;20053;-67
2023/01/27 09:12:44;;;;;;;0.25;0.25;;;;;;;;;;5030814;28;20410;-68
2023/01/27 09:15:12;;;;;;;0.70;0.70;;;;;;;;;;5029530;28;20084;-70
2023/01/27 09:17:41;;;;;;;0.25;0.25;;;;;;;;;;5026745;28;20164;-73
2023/01/27 09:20:10;;;;;;;3.08;1.42;;;;;;;;;;5033291;28;20428;-72
2023/01/27 09:22:40;;;;;;;1.75;0.55;;;;;;;;;;5033226;28;20081;-67
2023/01/27 09:25:10;;;;;;;0.20;0.20;;;;;;;;;;5031151;28;20510;-70
2023/01/27 09:27:38;;;;;;;0.82;0.82;;;;;;;;;;5024136;28;20064;-70
2023/01/27 09:30:11;;;;;;;0.85;0.85;;;;;;;;;;5027670;28;20046;-67
2023/01/27 09:32:40;;;;;;;0.57;0.50;;;;;;;;;;5033238;28;20512;-67
2023/01/27 09:35:09;;;;;;;0.30;0.30;;;;;;;;;;5030155;28;20096;-68
2023/01/27 09:37:39;;;;;;;0.30;0.30;;;;;;;;;;5029688;28;20037;-71
2023/01/27 09:40:12;;;;;;;1.95;0.55;;;;;;;;;;5036961;28;20091;-71
2023/01/27 09:42:50;;;;;;;3.60;0.90;;;;;;;;;;5029387;28;20188;-70
2023/01/27 09:45:33;;;;;;;1.27;0.88;;;;;;;;;;5033650;28;20053;-68
2023/01/27 09:48:08;;;;;;;0.77;0.77;;;;;;;;;;5024344;28;20061;-70
2023/01/27 09:50:46;;;;;;;0.57;0.57;;;;;;;;;;5026593;28;20128;-68
2023/01/27 09:53:29;;;;;;;0.75;0.75;;;;;;;;;;5028980;28;20092;-68
2023/01/27 09:56:01;;;;;;;0.82;0.80;;;;;;;;;;5029264;28;20128;-68
2023/01/27 09:58:33;;;;;;;0.43;0.43;;;;;;;;;;5027919;28;20041;-68
2023/01/27 10:01:07;;;;;;;1.63;1.13;;;;;;;;;;5024678;28;20053;-68
2023/01/27 10:03:50;;;;;;;1.23;0.82;;;;;;;;;;5026243;28;20517;-68
2023/01/27 10:06:30;;;;;;;0.30;0.30;;;;;;;;;;5026117;28;20084;-71
2023/01/27 10:09:11;;;;;;;3.50;0.88;;;;;;;;;;5026424;28;20053;-68
2023/01/27 10:11:42;;;;;;;0.60;0.60;;;;;;;;;;5028642;28;20050;-69
2023/01/27 10:14:15;;;;;;;1.35;0.90;;;;;;;;;;5030554;28;20048;-68
2023/01/27 10:16:58;;;;;;;6.78;1.65;;;;;;;;;;5027154;28;20049;-69
2023/01/27 10:19:33;;;;;;;0.38;0.38;;;;;;;;;;5024974;28;20156;-78
2023/01/27 10:22:08;;;;;;;0.95;0.95;;;;;;;;;;5027876;28;20482;-72
2023/01/27 10:24:42;;;;;;;0.65;0.65;;;;;;;;;;5026289;28;20057;-68
2023/01/27 10:27:17;;;;;;;2.10;0.80;;;;;;;;;;5028757;28;20045;-70
2023/01/27 10:29:46;;;;;;;0.40;0.40;;;;;;;;;;5041706;28;20087;-68
2023/01/27 10:32:22;;;;;;;0.30;0.30;;;;;;;;;;5026511;28;20437;-68
2023/01/27 10:34:55;;;;;;;0.50;0.50;;;;;;;;;;5023580;28;20053;-68
2023/01/27 10:37:27;;;;;;;2.38;0.77;;;;;;;;;;5030230;28;20049;-73
2023/01/27 10:40:00;;;;;;;1.00;0.50;;;;;;;;;;5027469;28;20072;-68
2023/01/27 10:42:32;;;;;;;2.10;1.95;;;;;;;;;;5022180;28;20045;-72
2023/01/27 10:45:11;;;;;;;0.80;0.80;;;;;;;;;;5023250;28;20156;-69
2023/01/27 10:47:47;;;;;;;1.25;1.15;;;;;;;;;;5026767;28;20124;-71
2023/01/27 10:50:17;;;;;;;0.38;0.38;;;;;;;;;;5029715;28;20111;-69
2023/01/27 10:52:46;;;;;;;1.17;0.50;;;;;;;;;;5028823;28;20059;-73
2023/01/27 10:55:18;;;;;;;2.00;0.68;;;;;;;;;;5025533;28;20052;-69
2023/01/27 10:57:48;;;;;;;4.65;1.67;;;;;;;;;;5021380;28;20045;-70
2023/01/27 11:00:22;;;;;;;0.47;0.47;;;;;;;;;;5030310;28;21415;-68
2023/01/27 11:03:16;;;;;;;0.70;0.70;;;;;;;;;;5027111;28;20067;-67
2023/01/27 11:05:46;;;;;;;0.75;0.75;;;;;;;;;;5026863;28;20471;-70
2023/01/27 11:08:18;;;;;;;0.52;0.52;;;;;;;;;;5029921;28;20057;-67
2023/01/27 11:13:31;;;;;;;0.47;0.47;;;;;;;;;;5028212;28;20083;-69
2023/01/27 11:16:00;;;;;;;0.73;0.73;;;;;;;;;;5030097;28;20494;-70
2023/01/27 11:18:31;;;;;;;1.80;0.52;;;;;;;;;;5031606;28;20097;-72
2023/01/27 11:21:01;;;;;;;2.05;1.33;;;;;;;;;;5026285;28;20049;-70
2023/01/27 11:23:31;;;;;;;0.47;0.45;;;;;;;;;;5028010;28;20057;-72
2023/01/27 11:26:03;;;;;;;1.20;1.10;;;;;;;;;;5030165;28;20063;-71
2023/01/27 11:28:36;;;;;;;2.67;1.00;;;;;;;;;;5036889;28;20053;-71
2023/01/27 11:31:09;;;;;;;1.23;1.02;;;;;;;;;;5032378;28;20465;-69
2023/01/27 11:33:50;;;;;;;1.85;1.70;;;;;;;;;;5037989;28;20045;-72
2023/01/27 11:36:19;;;;;;;2.90;0.85;;;;;;;;;;5032760;28;20056;-70
2023/01/27 11:38:47;;;;;;;0.90;0.80;;;;;;;;;;5034723;28;20045;-70
2023/01/27 11:41:16;;;;;;;0.40;0.40;;;;;;;;;;5031064;28;20123;-73
2023/01/27 11:43:44;;;;;;;0.40;0.40;;;;;;;;;;5034410;28;20136;-70
2023/01/27 11:46:15;;;;;;;3.08;0.98;;;;;;;;;;5029968;28;20077;-69
2023/01/27 11:48:47;;;;;;;1.08;1.00;;;;;;;;;;5028378;28;20388;-70
2023/01/27 11:51:20;;;;;;;0.25;0.25;;;;;;;;;;5021955;28;20096;-71
2023/01/27 11:53:51;;;;;;;3.83;1.23;;;;;;;;;;5026887;28;20156;-71
2023/01/27 11:56:20;;;;;;;0.45;0.45;;;;;;;;;;5023161;28;20041;-70
2023/01/27 11:58:52;;;;;;;0.40;0.40;;;;;;;;;;5031388;28;20140;-71
2023/01/27 12:01:23;;;;;;;1.63;0.52;;;;;;;;;;5025480;28;20589;-69
2023/01/27 12:03:55;;;;;;;2.03;1.52;;;;;;;;;;5028633;28;20049;-72
2023/01/27 12:06:27;;;;;;;3.15;0.70;;;;;;;;;;5030457;28;20099;-72
2023/01/27 12:08:55;;;;;;;0.50;0.50;;;;;;;;;;5027396;28;20052;-72
2023/01/27 12:11:25;;;;;;;8.35;1.90;;;;;;;;;;5030019;28;20160;-73
2023/01/27 12:13:55;;;;;;;4.38;1.10;;;;;;;;;;5027549;28;20129;-73
2023/01/27 12:16:25;;;;;;;2.33;1.80;;;;;;;;;;5031159;28;20128;-70
2023/01/27 12:18:57;;;;;;;3.45;1.83;;;;;;;;;;5028279;28;20429;-67
2023/01/27 12:21:35;;;;;;;1.10;1.02;;;;;;;;;;5025951;28;20045;-71
2023/01/27 12:24:04;;;;;;;0.65;0.65;;;;;;;;;;5028265;28;20048;-70
2023/01/27 12:26:36;;;;;;;0.50;0.50;;;;;;;;;;5026334;28;20057;-69
2023/01/27 12:29:06;;;;;;;1.15;1.13;;;;;;;;;;5028288;28;20075;-67
2023/01/27 12:31:44;;;;;;;1.08;0.70;;;;;;;;;;5026495;28;20060;-69
2023/01/27 12:34:29;;;;;;;2.08;0.75;;;;;;;;;;5025180;28;20061;-68
2023/01/27 12:36:58;;;;;;;0.50;0.50;;;;;;;;;;5025560;28;20053;-71
2023/01/27 12:39:46;;;;;;;0.95;0.95;;;;;;;;;;5025938;28;20136;-69
2023/01/27 12:42:32;;;;;;;0.45;0.30;;;;;;;;;;5022498;28;20052;-69
2023/01/27 12:45:01;;;;;;;0.50;0.50;;;;;;;;;;5030951;28;20107;-69
2023/01/27 12:47:30;;;;;;;0.88;0.47;;;;;;;;;;5023670;28;20045;-70
2023/01/27 12:53:09;;;;;;;1.88;0.90;;;;;;;;;;5066226;28;20504;-71
2023/01/27 12:55:40;;;;;;;4.78;1.05;;;;;;;;;;5058587;28;20114;-70
2023/01/27 12:58:27;;;;;;;1.42;1.35;;;;;;;;;;5055254;28;20045;-72
2023/01/27 13:00:56;;;;;;;2.67;1.00;;;;;;;;;;5043321;28;20124;-70
2023/01/27 13:03:25;;;;;;;3.20;0.90;;;;;;;;;;5044951;28;20056;-70
2023/01/27 13:09:25;;;;;;;0.20;0.20;;;;;;;;;;5037850;28;20450;-74
2023/01/27 13:11:56;;;;;;;3.97;1.35;;;;;;;;;;5046423;28;20482;-72
2023/01/27 13:14:33;;;;;;;0.60;0.43;;;;;;;;;;5038577;28;20469;-70
2023/01/27 13:17:02;;;;;;;1.50;0.88;;;;;;;;;;5043431;28;20136;-70
2023/01/27 13:19:35;;;;;;;1.00;0.73;;;;;;;;;;5047812;28;20139;-70
2023/01/27 13:22:04;;;;;;;1.00;1.00;;;;;;;;;;5047898;28;20172;-70
2023/01/27 13:24:35;;;;;;;0.50;0.50;;;;;;;;;;5046709;28;20513;-70
2023/01/27 13:27:07;;;;;;;0.25;0.25;;;;;;;;;;5044711;28;20077;-70
2023/01/27 13:29:36;;;;;;;2.25;1.38;;;;;;;;;;5045492;28;20709;-69
2023/01/27 13:32:06;;;;;;;1.40;1.30;;;;;;;;;;5047219;28;20049;-69
2023/01/27 13:34:39;;;;;;;4.90;1.08;;;;;;;;;;5047692;28;20088;-69
2023/01/27 13:37:10;;;;;;;1.40;1.38;;;;;;;;;;5043139;28;20074;-70
2023/01/27 13:39:46;;;;;;;1.38;1.05;;;;;;;;;;5061926;28;20052;-73
2023/01/27 13:42:19;;;;;;;1.83;1.73;;;;;;;;;;5051850;28;20053;-70
2023/01/27 13:44:50;;;;;;;3.70;2.10;;;;;;;;;;5056276;28;20041;-69
2023/01/27 13:47:20;;;;;;;1.52;1.10;;;;;;;;;;5058318;28;20100;-70
2023/01/27 13:49:51;;;;;;;1.40;1.30;;;;;;;;;;5064125;28;20052;-71
2023/01/27 13:52:19;;;;;;;1.63;1.25;;;;;;;;;;5060858;28;20048;-71
2023/01/27 13:54:48;;;;;;;5.47;1.48;;;;;;;;;;5066261;28;20140;-69
2023/01/27 13:57:28;;;;;;;2.38;0.75;;;;;;;;;;5063200;28;20052;-70
2023/01/27 14:00:02;;;;;;;1.98;1.17;;;;;;;;;;5067261;28;20423;-69
2023/01/27 14:02:40;;;;;;;0.80;0.80;;;;;;;;;;5052170;28;20485;-71
2023/01/27 14:05:21;;;;;;;2.05;1.25;;;;;;;;;;5055944;28;20878;-72
2023/01/27 14:07:53;;;;;;;1.05;1.05;;;;;;;;;;5059832;28;20052;-70
2023/01/27 14:10:25;;;;;;;1.58;1.13;;;;;;;;;;5055418;28;20095;-70
2023/01/27 14:13:04;;;;;;;0.90;0.90;;;;;;;;;;5043719;28;20055;-70
2023/01/27 14:15:36;;;;;;;1.85;1.20;;;;;;;;;;5047647;28;20041;-70
2023/01/27 14:18:08;;;;;;;1.33;0.90;;;;;;;;;;5052146;28;20056;-70
2023/01/27 14:20:45;;;;;;;0.57;0.57;;;;;;;;;;5051350;28;20434;-70
2023/01/27 14:23:13;;;;;;;;;;;;;;;;;;5053086;28;20128;-70
2023/01/27 14:25:45;;;;;;;1.05;0.98;;;;;;;;;;5047938;28;19928;-70
2023/01/27 14:28:22;;;;;;;0.60;0.60;;;;;;;;;;5049558;28;20080;-71
2023/01/27 14:30:54;;;;;;;1.08;0.80;;;;;;;;;;5048761;28;20044;-70
2023/01/27 14:33:29;;;;;;;0.80;0.70;;;;;;;;;;5049096;28;20129;-70
2023/01/27 14:36:00;;;;;;;1.70;0.55;;;;;;;;;;5060562;28;20052;-70
2023/01/27 14:38:32;;;;;;;0.65;0.65;;;;;;;;;;5047749;28;20075;-72
2023/01/27 14:41:08;;;;;;;2.35;1.20;;;;;;;;;;5044272;28;20103;-71
2023/01/27 14:43:42;;;;;;;4.85;1.65;;;;;;;;;;5047820;28;20048;-71
2023/01/27 14:46:18;;;;;;;1.40;0.70;;;;;;;;;;5048011;28;20128;-73
2023/01/27 14:48:53;;;;;;;2.30;1.52;;;;;;;;;;5043035;28;20057;-74
2023/01/27 14:51:29;;;;;;;1.63;0.80;;;;;;;;;;5046156;28;20061;-70
2023/01/27 14:54:05;;;;;;;1.08;0.98;;;;;;;;;;5047285;28;20059;-71
2023/01/27 14:56:40;;;;;;;3.03;1.50;;;;;;;;;;5049444;28;20387;-70
2023/01/27 14:59:14;;;;;;;3.13;1.08;;;;;;;;;;5046233;28;20144;-71
2023/01/27 15:01:47;;;;;;;1.23;1.13;;;;;;;;;;5046653;28;20060;-71
2023/01/27 15:04:37;;;;;;;1.92;0.88;;;;;;;;;;5047263;28;20493;-70
2023/01/27 15:07:18;;;;;;;2.15;1.38;;;;;;;;;;5046342;28;20049;-71
2023/01/27 15:10:11;;;;;;;0.80;0.80;;;;;;;;;;5041772;28;20059;-70
2023/01/27 15:12:55;;;;;;;2.10;1.52;;;;;;;;;;5045674;28;20503;-67
2023/01/27 15:15:33;;;;;;;0.93;0.93;;;;;;;;;;5038518;28;20041;-68
2023/01/27 15:18:08;;;;;;;3.00;1.33;;;;;;;;;;5047013;28;20064;-71
2023/01/27 15:20:42;;;;;;;4.78;2.58;;;;;;;;;;5045530;28;20072;-69
2023/01/27 15:23:17;;;;;;;4.28;2.03;;;;;;;;;;5046675;28;20073;-68
2023/01/27 15:25:47;;;;;;;1.40;1.33;;;;;;;;;;5048145;28;20082;-70
2023/01/27 15:28:16;;;;;;;3.65;3.35;;;;;;;;;;5051048;28;20072;-70
2023/01/27 15:31:00;;;;;;;6.32;1.55;;;;;;;;;;5050219;28;20147;-70
2023/01/27 15:33:52;;;;;;;1.50;1.42;;;;;;;;;;5048944;28;20563;-71
2023/01/27 15:36:30;;;;;;;1.75;0.77;;;;;;;;;;5050776;28;20128;-70
2023/01/27 15:39:16;;;;;;;1.63;1.40;;;;;;;;;;5049328;28;20099;-70
2023/01/27 15:41:54;;;;;;;1.17;1.08;;;;;;;;;;5045434;28;20045;-71